Time;durP1;ratioP1;P1;durP2;ratioP2;P2;SDS_P1;SDS_P2;PMS_P1;PMS_P2;Temp;Humidity;BMP_temperature;BMP_pressure;BME280_temperature;BME280_humidity;BME280_pressure;Samples;Min_cycle;Max_cycle;Signal;HPM_P1;HPM_P2
2024/02/22 00:01:18;;;;;;;;;;;;;;;22.62;39.20;99897.75;4130774;28;19926;-66
2024/02/22 00:03:19;;;;;;;;;;;;;;;22.65;38.96;99894.75;4131304;28;19926;-67
2024/02/22 00:05:22;;;;;;;;;;;;;;;22.67;39.15;99893.78;4131220;28;19929;-67
2024/02/22 00:07:24;;;;;;;;;;;;;;;22.67;39.20;99886.56;4130875;28;19973;-67
2024/02/22 00:09:25;;;;;;;;;;;;;;;22.68;38.88;99872.16;4131254;28;19932;-66
2024/02/22 00:11:27;;;;;;;;;;;;;;;22.69;38.93;99871.19;4131282;28;20414;-67
2024/02/22 00:13:31;;;;;;;;;;;;;;;22.69;39.20;99875.72;4131077;28;19926;-66
2024/02/22 00:15:33;;;;;;;;;;;;;;;22.69;38.81;99873.84;4130783;28;19930;-66
2024/02/22 00:17:34;;;;;;;;;;;;;;;22.68;38.87;99850.72;4130883;28;20422;-67
2024/02/22 00:19:36;;;;;;;;;;;;;;;22.69;39.06;99849.72;4131042;28;19926;-66
2024/02/22 00:21:38;;;;;;;;;;;;;;;22.68;39.15;99850.72;4131124;28;20319;-66
2024/02/22 00:23:40;;;;;;;;;;;;;;;22.68;39.14;99850.72;4133738;28;20349;-66
2024/02/22 00:25:41;;;;;;;;;;;;;;;22.69;39.06;99846.22;4134173;28;19932;-66
2024/02/22 00:27:43;;;;;;;;;;;;;;;22.68;39.08;99841.84;4133733;28;19925;-67
2024/02/22 00:29:44;;;;;;;;;;;;;;;22.69;39.21;99844.38;4133521;28;19961;-66
2024/02/22 00:31:46;;;;;;;;;;;;;;;22.70;39.17;99842.53;4133888;28;20303;-67
2024/02/22 00:33:48;;;;;;;;;;;;;;;22.70;38.87;99831.81;4133486;28;19953;-66
2024/02/22 00:35:50;;;;;;;;;;;;;;;22.72;38.84;99830.66;4133710;28;19940;-66
2024/02/22 00:37:51;;;;;;;;;;;;;;;22.73;38.82;99818.94;4116386;28;19965;-66
2024/02/22 00:39:53;;;;;;;;;;;;;;;22.74;39.02;99817.13;4116275;28;20288;-66
2024/02/22 00:41:54;;;;;;;;;;;;;;;22.74;39.22;99815.25;4133715;28;19930;-67
2024/02/22 00:43:55;;;;;;;;;;;;;;;22.74;39.04;99811.75;4133101;28;20415;-65
2024/02/22 00:45:57;;;;;;;;;;;;;;;22.76;39.21;99815.09;4133530;28;19926;-66
2024/02/22 00:47:59;;;;;;;;;;;;;;;22.75;38.85;99805.41;4133575;28;19926;-67
2024/02/22 00:50:01;;;;;;;;;;;;;;;22.74;39.21;99806.38;4133712;28;19980;-67
2024/02/22 00:52:03;;;;;;;;;;;;;;;22.72;39.24;99801.16;4116388;28;20012;-67
2024/02/22 00:54:09;;;;;;;;;;;;;;;22.73;38.97;99800.16;4133312;28;19926;-67
2024/02/22 00:56:10;;;;;;;;;;;;;;;22.73;39.15;99799.34;4133616;28;19926;-67
2024/02/22 00:58:12;;;;;;;;;;;;;;;22.71;39.30;99802.19;4133079;28;19926;-67
2024/02/22 01:00:14;;;;;;;;;;;;;;;22.73;39.24;99792.13;4133552;28;20375;-67
2024/02/22 01:02:18;;;;;;;;;;;;;;;22.75;38.98;99792.00;4133318;28;20018;-66
2024/02/22 01:04:20;;;;;;;;;;;;;;;22.75;39.09;99786.63;4133494;28;19972;-66
2024/02/22 01:06:21;;;;;;;;;;;;;;;22.77;39.10;99790.84;4133308;28;19976;-67
2024/02/22 01:08:23;;;;;;;;;;;;;;;22.79;39.25;99785.31;4133202;28;19988;-66
2024/02/22 01:10:25;;;;;;;;;;;;;;;22.77;39.01;99774.75;4116198;28;19930;-67
2024/02/22 01:12:27;;;;;;;;;;;;;;;22.80;39.24;99765.53;4132805;28;19926;-67
2024/02/22 01:14:28;;;;;;;;;;;;;;;22.80;39.04;99755.66;4133038;28;20421;-67
2024/02/22 01:16:30;;;;;;;;;;;;;;;22.80;39.35;99744.09;4133197;28;19925;-66
2024/02/22 01:18:32;;;;;;;;;;;;;;;22.81;39.16;99748.47;4133105;28;20395;-67
2024/02/22 01:20:34;;;;;;;;;;;;;;;22.79;39.28;99737.88;4132792;28;19988;-67
2024/02/22 01:22:35;;;;;;;;;;;;;;;22.79;39.26;99737.06;4132757;28;19936;-68
2024/02/22 01:24:37;;;;;;;;;;;;;;;22.77;39.08;99737.22;4133124;28;20292;-67
2024/02/22 01:26:38;;;;;;;;;;;;;;;22.78;39.33;99730.00;4132361;28;20001;-66
2024/02/22 01:28:40;;;;;;;;;;;;;;;22.78;39.33;99728.19;4132654;28;19926;-67
2024/02/22 01:30:42;;;;;;;;;;;;;;;22.79;39.35;99720.97;4133182;28;20032;-67
2024/02/22 01:32:43;;;;;;;;;;;;;;;22.80;39.46;99723.50;4132310;28;19932;-67
2024/02/22 01:34:45;;;;;;;;;;;;;;;22.83;39.38;99719.66;4132529;28;19929;-67
2024/02/22 01:36:47;;;;;;;;;;;;;;;22.84;39.18;99713.28;4132891;28;19933;-67
2024/02/22 01:38:49;;;;;;;;;;;;;;;22.85;39.10;99712.28;4132781;28;19926;-67
2024/02/22 01:40:50;;;;;;;;;;;;;;;22.86;39.35;99702.44;4132868;28;19934;-67
2024/02/22 01:42:53;;;;;;;;;;;;;;;22.86;39.10;99700.56;4132352;28;20264;-66
2024/02/22 01:44:58;;;;;;;;;;;;;;;22.87;38.94;99696.03;4132695;28;19926;-66
2024/02/22 01:47:00;;;;;;;;;;;;;;;22.85;39.22;99690.84;4132616;28;19980;-66
2024/02/22 01:49:02;;;;;;;;;;;;;;;22.86;38.85;99686.34;4132721;28;19964;-66
2024/02/22 01:51:04;;;;;;;;;;;;;;;22.84;39.39;99686.47;4132724;28;19926;-66
2024/02/22 01:53:06;;;;;;;;;;;;;;;22.73;39.40;99674.19;4132409;28;20256;-66
2024/02/22 01:55:09;;;;;;;;;;;;;;;22.84;39.06;99682.97;4132698;28;20359;-67
2024/02/22 01:57:11;;;;;;;;;;;;;;;22.84;39.42;99683.78;4132183;28;19929;-66
2024/02/22 01:59:13;;;;;;;;;;;;;;;22.85;39.11;99680.13;4132529;28;19926;-66
2024/02/22 02:01:17;;;;;;;;;;;;;;;22.86;39.16;99680.97;4132438;28;19929;-66
2024/02/22 02:03:20;;;;;;;;;;;;;;;22.88;39.58;99670.91;4132197;28;19925;-66
2024/02/22 02:05:21;;;;;;;;;;;;;;;22.89;39.06;99665.41;4132400;28;19925;-66
2024/02/22 02:07:23;;;;;;;;;;;;;;;22.89;39.27;99662.72;4132413;28;20020;-66
2024/02/22 02:09:25;;;;;;;;;;;;;;;22.90;39.34;99648.28;4132405;28;19936;-66
2024/02/22 02:11:26;;;;;;;;;;;;;;;22.91;39.20;99641.13;4131730;28;20303;-66
2024/02/22 02:13:28;;;;;;;;;;;;;;;22.90;39.09;99634.06;4115127;28;19933;-66
2024/02/22 02:15:30;;;;;;;;;;;;;;;22.90;39.23;99620.66;4132155;28;19926;-67
2024/02/22 02:17:32;;;;;;;;;;;;;;;22.89;39.12;99627.88;4132228;28;20294;-66
2024/02/22 02:19:33;;;;;;;;;;;;;;;22.89;39.29;99622.50;4132421;28;19969;-66
2024/02/22 02:21:39;;;;;;;;;;;;;;;22.89;39.39;99622.50;4132209;28;20392;-66
2024/02/22 02:23:59;;;;;;;;;;;;;;;22.88;39.23;99617.28;4131915;28;19926;-66
2024/02/22 02:26:03;;;;;;;;;;;;;;;22.88;39.53;99614.63;4131333;28;19926;-66
2024/02/22 02:28:04;;;;;;;;;;;;;;;22.88;39.56;99610.09;4131983;28;20020;-66
2024/02/22 02:30:06;;;;;;;;;;;;;;;22.90;39.24;99597.34;4114873;28;19926;-66
2024/02/22 02:32:08;;;;;;;;;;;;;;;22.92;39.23;99594.53;4132183;28;19936;-66
2024/02/22 02:34:10;;;;;;;;;;;;;;;22.94;39.55;99597.88;4131775;28;19930;-66
2024/02/22 02:36:11;;;;;;;;;;;;;;;22.94;39.49;99590.69;4131989;28;19929;-66
2024/02/22 02:38:13;;;;;;;;;;;;;;;22.96;39.43;99595.88;4131831;28;20020;-66
2024/02/22 02:40:15;;;;;;;;;;;;;;;22.95;39.48;99589.69;4131728;28;19930;-66
2024/02/22 02:42:17;;;;;;;;;;;;;;;22.96;39.51;99575.25;4131764;28;19972;-66
2024/02/22 02:44:18;;;;;;;;;;;;;;;22.95;39.37;99575.44;4131520;28;19926;-67
2024/02/22 02:46:20;;;;;;;;;;;;;;;22.95;39.52;99578.97;4131372;28;19933;-66
2024/02/22 02:48:22;;;;;;;;;;;;;;;22.96;39.39;99574.44;4131780;28;20356;-66
2024/02/22 02:50:23;;;;;;;;;;;;;;;22.94;39.57;99574.59;4131912;28;19933;-66
2024/02/22 02:52:25;;;;;;;;;;;;;;;22.94;39.50;99569.25;4131904;28;20368;-66
2024/02/22 02:54:26;;;;;;;;;;;;;;;22.94;39.51;99566.56;4131376;28;19926;-66
2024/02/22 02:56:30;;;;;;;;;;;;;;;22.94;39.50;99558.50;4131676;28;19932;-66
2024/02/22 02:58:32;;;;;;;;;;;;;;;22.95;39.42;99549.47;4131626;28;19984;-66
2024/02/22 03:00:33;;;;;;;;;;;;;;;22.97;39.56;99546.63;4131932;28;20291;-66
2024/02/22 03:02:35;;;;;;;;;;;;;;;22.98;39.24;99535.72;4131462;28;19937;-66
2024/02/22 03:04:37;;;;;;;;;;;;;;;23.00;39.34;99540.09;4131809;28;19933;-66
2024/02/22 03:06:39;;;;;;;;;;;;;;;23.01;39.24;99533.72;4131530;28;20040;-66
2024/02/22 03:08:41;;;;;;;;;;;;;;;23.01;39.32;99520.31;4131492;28;19937;-65
2024/02/22 03:10:43;;;;;;;;;;;;;;;23.01;39.50;99509.59;4131547;28;20058;-66
2024/02/22 03:12:44;;;;;;;;;;;;;;;23.01;39.56;99510.41;4131604;28;19925;-65
2024/02/22 03:14:46;;;;;;;;;;;;;;;23.00;39.49;99503.38;4131412;28;19929;-65
2024/02/22 03:16:47;;;;;;;;;;;;;;;23.01;39.59;99499.69;4131343;28;20263;-65
2024/02/22 03:18:49;;;;;;;;;;;;;;;22.98;39.30;99498.19;4131611;28;20380;-66
2024/02/22 03:20:51;;;;;;;;;;;;;;;22.98;39.55;99500.88;4131435;28;19930;-65
2024/02/22 03:22:53;;;;;;;;;;;;;;;22.98;39.32;99492.81;4114023;28;19926;-64
2024/02/22 03:24:55;;;;;;;;;;;;;;;22.99;39.22;99485.63;4131690;28;19926;-65
2024/02/22 03:26:56;;;;;;;;;;;;;;;23.00;39.40;99486.47;4131397;28;19930;-65
2024/02/22 03:28:58;;;;;;;;;;;;;;;23.00;39.26;99476.56;4131293;28;20372;-65
2024/02/22 03:30:59;;;;;;;;;;;;;;;23.02;39.33;99476.41;4131446;28;19926;-66
2024/02/22 03:33:01;;;;;;;;;;;;;;;23.03;39.57;99470.88;4131167;28;19932;-65
2024/02/22 03:35:06;;;;;;;;;;;;;;;23.04;39.41;99464.50;4131374;28;20343;-66
2024/02/22 03:37:08;;;;;;;;;;;;;;;23.06;39.35;99459.84;4130916;28;19935;-66
2024/02/22 03:39:11;;;;;;;;;;;;;;;23.05;39.31;99458.16;4131399;28;19933;-66
2024/02/22 03:41:24;;;;;;;;;;;;;;;23.05;39.72;99457.28;4131380;28;19926;-65
2024/02/22 03:43:26;;;;;;;;;;;;;;;23.04;39.54;99440.38;4131237;28;19929;-65
2024/02/22 03:45:27;;;;;;;;;;;;;;;23.05;39.26;99439.38;4131321;28;20410;-65
2024/02/22 03:47:29;;;;;;;;;;;;;;;23.04;39.13;99429.66;4131279;28;19926;-66
2024/02/22 03:49:31;;;;;;;;;;;;;;;23.04;39.60;99423.44;4131405;28;20012;-66
2024/02/22 03:51:33;;;;;;;;;;;;;;;23.03;39.45;99414.56;4131087;28;19929;-65
2024/02/22 03:53:35;;;;;;;;;;;;;;;23.03;39.43;99409.19;4131288;28;19965;-66
2024/02/22 03:55:36;;;;;;;;;;;;;;;23.04;39.50;99413.56;4131390;28;20020;-66
2024/02/22 03:57:38;;;;;;;;;;;;;;;23.07;39.70;99428.47;4134087;28;19968;-66
2024/02/22 03:59:40;;;;;;;;;;;;;;;23.07;39.50;99415.91;4134362;28;20307;-66
2024/02/22 04:01:41;;;;;;;;;;;;;;;23.08;39.69;99425.63;4134321;28;19926;-66
2024/02/22 04:03:43;;;;;;;;;;;;;;;23.11;39.25;99425.28;4134196;28;20405;-66
2024/02/22 04:05:45;;;;;;;;;;;;;;;23.11;39.55;99425.28;4134149;28;19925;-66
2024/02/22 04:07:48;;;;;;;;;;;;;;;23.11;39.48;99425.28;4133936;28;20418;-66
2024/02/22 04:09:51;;;;;;;;;;;;;;;23.11;39.28;99413.72;4126469;28;20409;-66
2024/02/22 04:11:52;;;;;;;;;;;;;;;23.11;39.30;99413.72;4134279;28;20008;-66
2024/02/22 04:13:54;;;;;;;;;;;;;;;23.09;39.37;99405.03;4134059;28;20017;-67
2024/02/22 04:15:56;;;;;;;;;;;;;;;23.08;39.38;99398.81;4116774;28;19930;-66
2024/02/22 04:17:57;;;;;;;;;;;;;;;23.09;39.63;99394.28;4134138;28;20128;-66
2024/02/22 04:20:02;;;;;;;;;;;;;;;23.09;39.42;99395.13;4134248;28;19926;-66
2024/02/22 04:22:04;;;;;;;;;;;;;;;23.08;39.49;99389.94;4133760;28;20443;-66
2024/02/22 04:24:06;;;;;;;;;;;;;;;23.08;39.43;99382.72;4134108;28;19977;-66
2024/02/22 04:26:07;;;;;;;;;;;;;;;23.09;39.64;99386.25;4133961;28;19930;-66
2024/02/22 04:28:10;;;;;;;;;;;;;;;23.11;39.45;99373.50;4133743;28;20430;-66
2024/02/22 04:30:13;;;;;;;;;;;;;;;23.13;39.56;99374.16;4134201;28;19961;-65
2024/02/22 04:32:15;;;;;;;;;;;;;;;23.13;39.41;99375.00;4133926;28;19929;-65
2024/02/22 04:34:17;;;;;;;;;;;;;;;23.15;39.41;99372.16;4133701;28;19952;-66
2024/02/22 04:36:19;;;;;;;;;;;;;;;23.14;39.41;99371.31;4133493;28;19926;-66
2024/02/22 04:38:22;;;;;;;;;;;;;;;23.15;39.42;99369.47;4133598;28;19964;-66
2024/02/22 04:40:24;;;;;;;;;;;;;;;23.16;39.60;99368.47;4116608;28;19926;-67
2024/02/22 04:42:26;;;;;;;;;;;;;;;23.15;39.55;99366.78;4133658;28;19936;-66
2024/02/22 04:44:27;;;;;;;;;;;;;;;23.14;39.35;99355.22;4133647;28;19968;-66
2024/02/22 04:46:29;;;;;;;;;;;;;;;23.14;39.81;99352.53;4133410;28;20391;-66
2024/02/22 04:48:31;;;;;;;;;;;;;;;23.13;39.36;99355.41;4133629;28;20084;-66
2024/02/22 04:50:33;;;;;;;;;;;;;;;23.15;39.59;99348.03;4133210;28;20387;-66
2024/02/22 04:52:35;;;;;;;;;;;;;;;23.13;39.58;99342.81;4133417;28;20017;-66
2024/02/22 04:54:36;;;;;;;;;;;;;;;23.14;39.50;99340.97;4133434;28;19929;-66
2024/02/22 04:56:45;;;;;;;;;;;;;;;23.17;39.41;99337.16;4133753;28;19992;-66
2024/02/22 04:58:46;;;;;;;;;;;;;;;23.17;39.38;99331.78;4133383;28;19933;-66
2024/02/22 05:00:49;;;;;;;;;;;;;;;23.17;39.72;99323.75;4133292;28;19988;-66
2024/02/22 05:02:50;;;;;;;;;;;;;;;23.19;39.82;99314.50;4133477;28;19926;-66
2024/02/22 05:04:52;;;;;;;;;;;;;;;23.21;39.57;99309.81;4133217;28;19926;-66
2024/02/22 05:06:53;;;;;;;;;;;;;;;23.21;39.38;99304.47;4133323;28;19925;-66
2024/02/22 05:08:55;;;;;;;;;;;;;;;23.21;39.61;99290.19;4132274;28;20017;-66
2024/02/22 05:10:56;;;;;;;;;;;;;;;23.21;39.58;99291.03;4133293;28;20020;-66
2024/02/22 05:12:58;;;;;;;;;;;;;;;23.19;39.60;99282.31;4133261;28;20055;-66
2024/02/22 05:15:01;;;;;;;;;;;;;;;23.20;39.64;99275.97;4133240;28;19933;-66
2024/02/22 05:17:02;;;;;;;;;;;;;;;23.19;39.51;99273.47;4133349;28;19926;-66
2024/02/22 05:19:04;;;;;;;;;;;;;;;23.18;39.73;99269.91;4132990;28;19935;-66
2024/02/22 05:21:05;;;;;;;;;;;;;;;23.18;39.30;99269.91;4133289;28;19925;-66
2024/02/22 05:23:09;;;;;;;;;;;;;;;23.18;39.73;99258.38;4133377;28;19925;-66
2024/02/22 05:25:10;;;;;;;;;;;;;;;23.18;39.79;99253.81;4133158;28;19925;-66
2024/02/22 05:27:12;;;;;;;;;;;;;;;23.19;39.87;99243.94;4133066;28;20379;-66
2024/02/22 05:29:13;;;;;;;;;;;;;;;23.21;39.58;99241.91;4133194;28;19945;-67
2024/02/22 05:31:20;;;;;;;;;;;;;;;23.21;39.77;99240.09;4133016;28;19926;-66
2024/02/22 05:33:22;;;;;;;;;;;;;;;23.23;39.57;99232.72;4132442;28;19972;-66
2024/02/22 05:35:24;;;;;;;;;;;;;;;23.24;39.68;99238.91;4133015;28;19948;-67
2024/02/22 05:37:26;;;;;;;;;;;;;;;23.23;39.49;99230.03;4132976;28;19926;-66
2024/02/22 05:39:27;;;;;;;;;;;;;;;23.23;39.70;99245.25;4132924;28;20422;-66
2024/02/22 05:41:29;;;;;;;;;;;;;;;23.24;39.76;99236.22;4133058;28;19932;-66
2024/02/22 05:43:31;;;;;;;;;;;;;;;23.23;39.81;99231.84;4132649;28;20410;-66
2024/02/22 05:45:37;;;;;;;;;;;;;;;23.23;39.76;99229.19;4115770;28;20412;-66
2024/02/22 05:47:39;;;;;;;;;;;;;;;23.21;39.81;99218.63;4132256;28;19948;-67
2024/02/22 05:49:41;;;;;;;;;;;;;;;23.22;39.75;99219.44;4132724;28;20299;-67
2024/02/22 05:51:43;;;;;;;;;;;;;;;23.21;39.64;99210.59;4132914;28;19961;-66
2024/02/22 05:53:44;;;;;;;;;;;;;;;23.20;39.68;99208.09;4132707;28;20024;-66
2024/02/22 05:55:46;;;;;;;;;;;;;;;23.22;39.81;99214.09;4115624;28;19949;-66
2024/02/22 05:57:47;;;;;;;;;;;;;;;23.23;39.71;99213.09;4132667;28;19926;-67
2024/02/22 05:59:49;;;;;;;;;;;;;;;23.24;39.86;99198.66;4132742;28;19960;-66
2024/02/22 06:01:50;;;;;;;;;;;;;;;23.25;39.49;99193.13;4115412;28;19926;-66
2024/02/22 06:03:52;;;;;;;;;;;;;;;23.27;39.74;99190.28;4132192;28;19925;-66
2024/02/22 06:05:54;;;;;;;;;;;;;;;23.26;39.39;99188.59;4132582;28;19926;-66
2024/02/22 06:07:55;;;;;;;;;;;;;;;23.25;39.45;99178.88;4132463;28;19930;-66
2024/02/22 06:09:57;;;;;;;;;;;;;;;23.25;39.55;99179.72;4132285;28;19933;-67
2024/02/22 06:11:58;;;;;;;;;;;;;;;23.26;39.72;99186.75;4132559;28;19930;-66
2024/02/22 06:14:00;;;;;;;;;;;;;;;23.24;39.68;99194.13;4132489;28;19926;-66
2024/02/22 06:16:03;;;;;;;;;;;;;;;23.24;39.55;99185.25;4132344;28;19926;-66
2024/02/22 06:18:04;;;;;;;;;;;;;;;23.23;39.81;99184.44;4131868;28;20410;-66
2024/02/22 06:20:06;;;;;;;;;;;;;;;23.22;39.79;99179.22;4132416;28;19969;-66
2024/02/22 06:22:09;;;;;;;;;;;;;;;23.22;39.88;99181.91;4132446;28;19929;-67
2024/02/22 06:24:10;;;;;;;;;;;;;;;23.22;39.83;99179.22;4132446;28;19926;-66
2024/02/22 06:26:12;;;;;;;;;;;;;;;23.24;39.81;99177.22;4132111;28;19937;-67
2024/02/22 06:28:14;;;;;;;;;;;;;;;23.26;39.84;99164.47;4132194;28;19925;-67
2024/02/22 06:30:15;;;;;;;;;;;;;;;23.26;39.69;99167.97;4132126;28;19932;-67
2024/02/22 06:32:17;;;;;;;;;;;;;;;23.26;39.75;99149.19;4131723;28;19965;-67
2024/02/22 06:34:19;;;;;;;;;;;;;;;23.28;39.74;99165.09;4132094;28;19934;-66
2024/02/22 06:36:22;;;;;;;;;;;;;;;23.29;39.78;99158.72;4132079;28;19972;-67
2024/02/22 06:38:23;;;;;;;;;;;;;;;23.28;39.66;99146.31;4132068;28;20339;-67
2024/02/22 06:40:25;;;;;;;;;;;;;;;23.28;39.81;99140.97;4131879;28;19932;-67
2024/02/22 06:42:27;;;;;;;;;;;;;;;23.27;39.86;99142.00;4132171;28;20392;-67
2024/02/22 06:44:28;;;;;;;;;;;;;;;23.27;39.98;99142.81;4132114;28;20024;-66
2024/02/22 06:46:30;;;;;;;;;;;;;;;23.26;39.81;99133.09;4131465;28;20311;-65
2024/02/22 06:48:32;;;;;;;;;;;;;;;23.26;39.75;99132.28;4132156;28;20024;-67
2024/02/22 06:50:33;;;;;;;;;;;;;;;23.26;39.79;99126.91;4131992;28;20375;-66
2024/02/22 06:52:35;;;;;;;;;;;;;;;23.26;39.90;99124.22;4132163;28;19961;-67
2024/02/22 06:54:37;;;;;;;;;;;;;;;23.27;39.86;99118.69;4131867;28;19926;-66
2024/02/22 06:56:39;;;;;;;;;;;;;;;23.28;39.71;99120.34;4131832;28;20082;-67
2024/02/22 06:58:40;;;;;;;;;;;;;;;23.29;39.86;99111.31;4131806;28;19930;-66
2024/02/22 07:00:42;;;;;;;;;;;;;;;23.31;39.57;99124.53;4131369;28;19926;-67
2024/02/22 07:02:44;;;;;;;;;;;;;;;23.31;39.85;99116.47;4131613;28;20273;-67
2024/02/22 07:04:45;;;;;;;;;;;;;;;23.32;39.41;99111.94;4131642;28;20231;-66
2024/02/22 07:06:47;;;;;;;;;;;;;;;23.32;39.92;99103.91;4131608;28;20463;-66
2024/02/22 07:08:49;;;;;;;;;;;;;;;23.32;39.83;99118.16;4131707;28;19936;-66
2024/02/22 07:10:51;;;;;;;;;;;;;;;23.31;39.86;99111.13;4131733;28;19972;-66
2024/02/22 07:12:52;;;;;;;;;;;;;;;23.31;39.72;99111.13;4131738;28;19925;-67
2024/02/22 07:14:54;;;;;;;;;;;;;;;23.31;39.73;99107.59;4131465;28;19972;-66
2024/02/22 07:16:55;;;;;;;;;;;;;;;23.31;39.64;99112.94;4132045;28;20010;-67
2024/02/22 07:19:02;;;;;;;;;;;;;;;23.29;39.76;99100.56;4131665;28;19951;-67
2024/02/22 07:21:08;;;;;;;;;;;;;;;23.28;39.71;99101.59;4131708;28;19929;-66
2024/02/22 07:23:10;;;;;;;;;;;;;;;23.29;39.68;99094.34;4131794;28;19926;-66
2024/02/22 07:25:12;;;;;;;;;;;;;;;23.18;39.94;99060.72;4131673;28;20241;-67
2024/02/22 07:27:13;;;;;;;;;;;;;;;23.32;39.91;99077.06;4131617;28;19933;-67
2024/02/22 07:29:15;;;;;;;;;;;;;;;23.31;39.92;99084.28;4131264;28;20387;-67
2024/02/22 07:31:22;;;;;;;;;;;;;;;23.32;39.65;99077.91;4132579;28;19926;-68
2024/02/22 07:33:23;;;;;;;;;;;;;;;23.34;39.79;99072.38;4134645;28;19926;-68
2024/02/22 07:35:25;;;;;;;;;;;;;;;23.35;39.90;99069.50;4134989;28;19984;-68
2024/02/22 07:37:27;;;;;;;;;;;;;;;23.35;39.70;99063.31;4117246;28;20012;-67
2024/02/22 07:39:28;;;;;;;;;;;;;;;23.36;39.91;99059.63;4134726;28;19976;-67
2024/02/22 07:41:29;;;;;;;;;;;;;;;23.34;40.03;99046.38;4134969;28;19949;-67
2024/02/22 07:43:31;;;;;;;;;;;;;;;23.35;39.80;99033.81;4134465;28;19926;-67
2024/02/22 07:45:38;;;;;;;;;;;;;;;23.34;39.97;99027.59;4134610;28;19926;-67
2024/02/22 07:47:40;;;;;;;;;;;;;;;23.33;39.84;99023.25;4134571;28;19926;-67
2024/02/22 07:49:41;;;;;;;;;;;;;;;23.34;39.68;99016.84;4134764;28;19925;-67
2024/02/22 07:51:43;;;;;;;;;;;;;;;23.33;40.06;99009.00;4134629;28;19951;-68
2024/02/22 07:53:58;;;;;;;;;;;;;;;23.33;39.71;99012.53;4134614;28;20395;-68
2024/02/22 07:56:07;;;;;;;;;;;;;;;23.34;40.01;99006.13;4134481;28;19932;-68
2024/02/22 07:58:09;;;;;;;;;;;;;;;23.35;40.07;99010.50;4134119;28;20099;-67
2024/02/22 08:00:11;;;;;;;;;;;;;;;23.34;40.01;99006.13;4117348;28;20313;-68
2024/02/22 08:02:12;;;;;;;;;;;;;;;23.37;39.97;99007.66;4134369;28;20032;-68
2024/02/22 08:04:14;;;;;;;;;;;;;;;23.36;39.63;99001.44;4134417;28;20343;-67
2024/02/22 08:06:16;;;;;;;;;;;;;;;23.36;40.05;98985.34;4117192;28;20359;-68
2024/02/22 08:08:18;;;;;;;;;;;;;;;23.38;40.01;98985.16;4134238;28;20311;-68
2024/02/22 08:10:19;;;;;;;;;;;;;;;23.37;39.87;98976.28;4134422;28;20319;-68
2024/02/22 08:12:22;;;;;;;;;;;;;;;23.37;39.94;98962.03;4134289;28;20021;-68
2024/02/22 08:14:24;;;;;;;;;;;;;;;23.38;39.87;98945.75;4134184;28;19965;-67
2024/02/22 08:16:26;;;;;;;;;;;;;;;23.38;39.55;98944.91;4134248;28;20403;-69
2024/02/22 08:18:27;;;;;;;;;;;;;;;23.37;39.69;98951.31;4134221;28;19937;-67
2024/02/22 08:20:31;;;;;;;;;;;;;;;23.36;39.68;98941.59;4134465;28;19930;-67
2024/02/22 08:22:33;;;;;;;;;;;;;;;23.36;39.79;98930.88;4134111;28;19933;-68
2024/02/22 08:24:34;;;;;;;;;;;;;;;23.36;40.06;98937.03;4134119;28;19932;-68
2024/02/22 08:26:37;;;;;;;;;;;;;;;23.39;39.85;98942.06;4116639;28;20025;-67
2024/02/22 08:28:39;;;;;;;;;;;;;;;23.39;39.97;98928.66;4133587;28;20383;-68
2024/02/22 08:30:41;;;;;;;;;;;;;;;23.41;39.65;98928.47;4134077;28;19930;-68
2024/02/22 08:32:42;;;;;;;;;;;;;;;23.43;39.80;98929.13;4133858;28;20012;-67
2024/02/22 08:34:44;;;;;;;;;;;;;;;23.43;39.63;98921.91;4133895;28;19926;-68
2024/02/22 08:36:46;;;;;;;;;;;;;;;23.41;39.87;98918.53;4133607;28;20067;-68
2024/02/22 08:38:48;;;;;;;;;;;;;;;23.43;39.91;98913.84;4133831;28;20075;-67
2024/02/22 08:40:51;;;;;;;;;;;;;;;23.42;40.14;98901.44;4133806;28;20440;-68
2024/02/22 08:42:53;;;;;;;;;;;;;;;23.41;39.80;98898.94;4132422;28;19932;-68
2024/02/22 08:44:55;;;;;;;;;;;;;;;23.41;40.08;98902.44;4133833;28;19932;-67
2024/02/22 08:47:03;;;;;;;;;;;;;;;23.40;40.05;98887.41;4133618;28;19930;-68
2024/02/22 08:49:05;;;;;;;;;;;;;;;23.41;40.16;98882.84;4133685;28;19932;-67
2024/02/22 08:51:08;;;;;;;;;;;;;;;23.40;39.92;98875.81;4133717;28;20009;-68
2024/02/22 08:53:10;;;;;;;;;;;;;;;23.40;39.94;98863.25;4133620;28;19926;-67
2024/02/22 08:55:12;;;;;;;;;;;;;;;23.41;39.75;98872.13;4133221;28;20387;-68
2024/02/22 08:57:14;;;;;;;;;;;;;;;23.42;40.15;98873.78;4108328;28;19982;-68
2024/02/22 08:59:15;;;;;;;;;;;;;;;23.44;39.84;98869.09;4101228;29;20336;-68
2024/02/22 09:01:20;;;;;;;;;;;;;;;23.46;39.83;98861.66;4101460;29;20411;-68
2024/02/22 09:03:22;;;;;;;;;;;;;;;23.46;39.83;98853.63;4101210;29;19973;-68
2024/02/22 09:05:23;;;;;;;;;;;;;;;23.47;40.01;98849.91;4100809;29;19930;-69
2024/02/22 09:07:25;;;;;;;;;;;;;;;23.48;39.60;98842.72;4100516;29;19926;-69
2024/02/22 09:09:28;;;;;;;;;;;;;;;23.49;40.07;98844.38;4100929;29;19933;-68
2024/02/22 09:11:30;;;;;;;;;;;;;;;23.46;40.01;98832.16;4101087;29;19931;-69
2024/02/22 09:13:31;;;;;;;;;;;;;;;23.45;39.99;98831.34;4101404;29;19932;-68
2024/02/22 09:15:34;;;;;;;;;;;;;;;23.45;39.96;98834.00;4101568;29;20017;-67
2024/02/22 09:17:35;;;;;;;;;;;;;;;23.46;40.12;98829.47;4101095;29;19988;-68
2024/02/22 09:19:37;;;;;;;;;;;;;;;23.44;39.90;98813.56;4099959;29;19927;-68
2024/02/22 09:21:39;;;;;;;;;;;;;;;23.44;40.22;98810.06;4101156;29;19927;-68
2024/02/22 09:23:41;;;;;;;;;;;;;;;23.44;40.19;98807.38;4100949;29;20041;-68
2024/02/22 09:25:47;;;;;;;;;;;;;;;23.45;40.08;98803.66;4100879;29;19981;-68
2024/02/22 09:27:50;;;;;;;;;;;;;;;23.46;39.90;98791.91;4101104;29;19931;-69
2024/02/22 09:29:53;;;;;;;;;;;;;;;23.48;39.96;98791.75;4099880;29;20005;-68
2024/02/22 09:31:55;;;;;;;;;;;;;;;23.48;40.06;98791.75;4101085;29;19953;-68
2024/02/22 09:34:00;;;;;;;;;;;;;;;23.48;40.07;98795.25;4072676;29;20009;-69
2024/02/22 09:36:02;;;;;;;;;;;;;;;23.49;39.75;98794.25;4084978;29;19974;-68
2024/02/22 09:38:04;;;;;;;;;;;;;;;23.49;39.95;98774.59;4091125;28;19962;-68
2024/02/22 09:40:07;;;;;;;;;;;;;;;23.48;40.12;98773.78;4116482;28;19965;-69
2024/02/22 09:42:11;;;;;;;;;;;;;;;23.49;39.87;98774.59;4099470;28;19984;-68
2024/02/22 09:44:13;;;;;;;;;;;;;;;23.48;39.84;98768.41;4116649;28;19927;-68
2024/02/22 09:46:15;;;;;;;;;;;;;;;23.49;39.72;98747.78;4116655;28;20009;-68
2024/02/22 09:48:16;;;;;;;;;;;;;;;23.48;39.74;98749.63;4116393;28;19949;-67
2024/02/22 09:50:20;;;;;;;;;;;;;;;23.47;39.88;98742.59;4116517;28;19926;-68
2024/02/22 09:52:22;;;;;;;;;;;;;;;23.48;40.11;98751.50;4116573;28;20017;-68
2024/02/22 09:54:25;;;;;;;;;;;;;;;23.48;39.84;98740.78;4098811;28;19961;-67
2024/02/22 09:56:27;;;;;;;;;;;;;;;23.48;39.87;98730.03;4116492;28;19958;-67
2024/02/22 09:58:29;;;;;;;;;;;;;;;23.49;39.70;98737.91;4116382;28;19926;-68
2024/02/22 10:00:30;;;;;;;;;;;;;;;23.49;39.69;98721.78;4116183;28;19930;-67
2024/02/22 10:02:32;;;;;;;;;;;;;;;23.49;39.88;98713.75;4116374;28;20419;-68
2024/02/22 10:04:34;;;;;;;;;;;;;;;23.52;39.72;98707.16;4110017;28;19930;-67
2024/02/22 10:06:36;;;;;;;;;;;;;;;23.51;39.68;98702.81;4098715;28;20274;-69
2024/02/22 10:08:37;;;;;;;;;;;;;;;23.50;40.13;98710.06;4099301;29;19989;-68
2024/02/22 10:10:40;;;;;;;;;;;;;;;23.49;40.23;98703.00;4100150;28;19937;-71
2024/02/22 10:12:43;;;;;;;;;;;;;;;23.48;40.36;98690.63;4099092;28;20088;-69
2024/02/22 10:14:47;;;;;;;;;;;;;;;23.49;40.73;98683.38;4092980;29;20088;-65
2024/02/22 10:16:49;;;;;;;;;;;;;;;23.51;40.44;98678.66;4097616;29;20028;-65
2024/02/22 10:18:50;;;;;;;;;;;;;;;23.50;40.36;98671.63;4087205;28;20305;-65
2024/02/22 10:20:52;;;;;;;;;;;;;;;23.50;40.92;98679.69;4102731;28;19927;-67
2024/02/22 10:23:03;;;;;;;;;;;;;;;23.49;40.76;98654.72;4099863;29;19926;-72
2024/02/22 10:25:06;;;;;;;;;;;;;;;23.50;41.04;98663.59;4093402;28;19931;-74
2024/02/22 10:27:07;;;;;;;;;;;;;;;23.49;40.81;98657.41;4098025;28;19968;-73
2024/02/22 10:29:11;;;;;;;;;;;;;;;23.49;40.58;98654.72;4100371;28;19979;-73
2024/02/22 10:31:16;;;;;;;;;;;;;;;23.49;40.91;98652.03;4100008;29;19935;-74
2024/02/22 10:33:18;;;;;;;;;;;;;;;23.49;40.55;98627.03;4105559;28;20304;-73
2024/02/22 10:35:23;;;;;;;;;;;;;;;23.49;40.69;98630.56;4115231;28;19984;-73
2024/02/22 10:37:24;;;;;;;;;;;;;;;23.50;40.66;98626.88;4115938;28;20025;-74